Time;durP1;ratioP1;P1;durP2;ratioP2;P2;SDS_P1;SDS_P2;PMS_P1;PMS_P2;Temp;Humidity;BMP_temperature;BMP_pressure;BME280_temperature;BME280_humidity;BME280_pressure;Samples;Min_cycle;Max_cycle;Signal;HPM_P1;HPM_P2
2022/07/10 00:00:09;;;;;;;13.25;0.90;;;15.50;98.70;;;;;;5042111;28;20393;-76
2022/07/10 00:02:35;;;;;;;6.40;0.77;;;15.50;99.50;;;;;;4353260;28;10000456;-76
2022/07/10 00:05:00;;;;;;;4.35;0.80;;;15.50;99.70;;;;;;5042337;28;20450;-76
2022/07/10 00:07:26;;;;;;;4.75;0.70;;;15.40;99.40;;;;;;5043602;28;20129;-77
2022/07/10 00:09:52;;;;;;;5.55;1.00;;;15.50;99.60;;;;;;5042615;28;20028;-76
2022/07/10 00:12:17;;;;;;;4.43;0.90;;;15.40;99.70;;;;;;5042887;28;20119;-76
2022/07/10 00:14:43;;;;;;;3.83;0.98;;;15.40;99.50;;;;;;5037081;28;20036;-76
2022/07/10 00:17:08;;;;;;;5.72;0.80;;;15.40;99.30;;;;;;5046737;28;20331;-76
2022/07/10 00:19:34;;;;;;;2.20;0.70;;;15.40;99.50;;;;;;5034155;28;20029;-76
2022/07/10 00:22:00;;;;;;;4.13;0.90;;;15.30;99.50;;;;;;5035955;28;20063;-76
2022/07/10 00:24:25;;;;;;;2.00;0.73;;;15.20;99.90;;;;;;5036236;28;20076;-76
2022/07/10 00:26:51;;;;;;;4.80;0.82;;;15.20;99.90;;;;;;5048278;28;20087;-76
2022/07/10 00:29:16;;;;;;;4.32;0.90;;;15.10;99.90;;;;;;5041482;28;20572;-76
2022/07/10 00:31:42;;;;;;;6.07;0.90;;;15.20;99.90;;;;;;5042084;28;20541;-76
2022/07/10 00:34:07;;;;;;;3.83;0.80;;;15.20;99.90;;;;;;5039264;28;20029;-76
2022/07/10 00:36:33;;;;;;;4.40;0.90;;;15.20;99.90;;;;;;5044864;28;20055;-76
2022/07/10 00:38:59;;;;;;;2.30;0.80;;;15.20;99.90;;;;;;5039293;28;20099;-76
2022/07/10 00:41:25;;;;;;;3.42;0.65;;;15.20;99.90;;;;;;5044317;28;20392;-76
2022/07/10 00:43:55;;;;;;;4.32;0.70;;;15.20;99.90;;;;;;5039640;28;20036;-76
2022/07/10 00:46:21;;;;;;;2.45;0.60;;;15.20;99.90;;;;;;5045096;28;20040;-76
2022/07/10 00:48:48;;;;;;;3.25;1.00;;;15.10;99.90;;;;;;5039012;28;20029;-76
2022/07/10 00:51:16;;;;;;;3.67;0.77;;;15.10;99.90;;;;;;5046402;28;20124;-76
2022/07/10 00:53:46;;;;;;;2.55;0.90;;;15.10;99.90;;;;;;5038138;28;20025;-76
2022/07/10 00:56:15;;;;;;;3.47;0.75;;;15.10;99.90;;;;;;5040949;28;20056;-76
2022/07/10 00:58:41;;;;;;;2.35;0.77;;;15.00;99.90;;;;;;5040577;28;20037;-76
2022/07/10 01:01:07;;;;;;;3.53;0.65;;;14.90;99.90;;;;;;5036890;28;20091;-76
2022/07/10 01:03:32;;;;;;;3.95;1.00;;;14.90;99.90;;;;;;5039658;28;20021;-76
2022/07/10 01:05:58;;;;;;;1.75;0.65;;;14.90;99.90;;;;;;5036601;28;20028;-75
2022/07/10 01:08:24;;;;;;;3.38;0.70;;;14.80;99.90;;;;;;5038196;28;20348;-76
2022/07/10 01:10:51;;;;;;;5.57;0.90;;;14.70;99.90;;;;;;5043593;28;20029;-76
2022/07/10 01:13:16;;;;;;;2.83;0.80;;;14.70;99.90;;;;;;5040378;28;20024;-76
2022/07/10 01:15:42;;;;;;;1.65;0.60;;;14.70;99.90;;;;;;5041359;28;20071;-76
2022/07/10 01:18:08;;;;;;;2.13;0.80;;;14.70;99.90;;;;;;5034073;28;20017;-75
2022/07/10 01:20:34;;;;;;;6.70;0.90;;;14.70;99.90;;;;;;5037543;28;20033;-75
2022/07/10 01:23:01;;;;;;;7.82;1.15;;;14.60;99.90;;;;;;5034965;28;20035;-76
2022/07/10 01:25:26;;;;;;;4.28;0.82;;;14.60;99.90;;;;;;5041239;28;20047;-76
2022/07/10 01:27:52;;;;;;;4.80;1.00;;;14.50;99.90;;;;;;5041007;28;20040;-76
2022/07/10 01:30:19;;;;;;;4.57;1.02;;;14.50;99.90;;;;;;5044447;28;20029;-76
2022/07/10 01:32:45;;;;;;;4.30;0.93;;;14.50;99.90;;;;;;5034940;28;20449;-76
2022/07/10 01:35:10;;;;;;;7.65;1.23;;;14.50;99.90;;;;;;5040411;28;20072;-76
2022/07/10 01:37:37;;;;;;;3.45;0.88;;;14.40;99.90;;;;;;5033820;28;20025;-76
2022/07/10 01:40:03;;;;;;;2.22;0.73;;;14.40;99.90;;;;;;5032878;28;20036;-75
2022/07/10 01:42:29;;;;;;;5.82;0.90;;;14.40;99.90;;;;;;5042958;28;20025;-76
2022/07/10 01:44:54;;;;;;;5.68;1.10;;;14.40;99.90;;;;;;5035558;28;20071;-76
2022/07/10 01:47:24;;;;;;;4.57;1.10;;;14.40;99.90;;;;;;5033580;28;20032;-76
2022/07/10 01:49:50;;;;;;;3.55;1.00;;;14.40;99.90;;;;;;5027212;28;20033;-76
2022/07/10 01:52:16;;;;;;;7.60;1.15;;;14.30;99.90;;;;;;5029387;28;20115;-76
2022/07/10 01:54:41;;;;;;;8.15;1.00;;;14.40;99.90;;;;;;5033176;28;20478;-76
2022/07/10 01:57:07;;;;;;;4.60;1.00;;;14.40;99.90;;;;;;5035510;28;20482;-76
2022/07/10 01:59:33;;;;;;;4.20;0.95;;;14.50;99.90;;;;;;5036807;28;20029;-75
2022/07/10 02:01:58;;;;;;;3.40;0.80;;;14.50;99.90;;;;;;5035767;28;20028;-75
2022/07/10 02:04:42;;;;;;;3.28;0.80;;;14.50;99.90;;;;;;5035125;28;20478;-76
2022/07/10 02:07:08;;;;;;;3.60;0.98;;;14.50;99.90;;;;;;5040186;28;20424;-76
2022/07/10 02:09:34;;;;;;;1.58;0.65;;;14.60;99.90;;;;;;5036470;28;20116;-76
2022/07/10 02:12:00;;;;;;;6.80;1.10;;;14.60;99.90;;;;;;5036464;28;20127;-76
2022/07/10 02:14:25;;;;;;;3.58;0.88;;;14.60;99.90;;;;;;5038239;28;20454;-76
2022/07/10 02:16:51;;;;;;;5.68;1.02;;;14.50;99.90;;;;;;5035839;28;20135;-76
2022/07/10 02:19:17;;;;;;;4.82;1.00;;;14.50;99.90;;;;;;5054674;28;20036;-76
2022/07/10 02:21:43;;;;;;;2.67;0.77;;;14.40;99.90;;;;;;5048746;28;20072;-76
2022/07/10 02:24:09;;;;;;;4.55;0.88;;;14.40;99.90;;;;;;5039602;28;20031;-76
2022/07/10 02:26:34;;;;;;;2.92;0.95;;;14.30;99.90;;;;;;5045961;28;20025;-79
2022/07/10 02:29:00;;;;;;;3.75;0.90;;;14.30;99.90;;;;;;5041481;28;20033;-76
2022/07/10 02:31:25;;;;;;;5.22;0.90;;;14.30;99.90;;;;;;5041734;28;20083;-76
2022/07/10 02:33:51;;;;;;;2.58;0.70;;;14.30;99.90;;;;;;5047894;28;20608;-76
2022/07/10 02:36:17;;;;;;;2.75;0.70;;;14.20;99.90;;;;;;5046931;28;20041;-76
2022/07/10 02:38:42;;;;;;;3.85;0.90;;;14.20;99.90;;;;;;5041279;28;20028;-76
2022/07/10 02:41:08;;;;;;;4.30;1.05;;;14.00;99.90;;;;;;5044095;28;20045;-76
2022/07/10 02:43:33;;;;;;;4.13;0.90;;;14.00;99.90;;;;;;5036419;28;20428;-76
2022/07/10 02:45:59;;;;;;;5.88;1.10;;;13.90;99.90;;;;;;5045954;28;20063;-76
2022/07/10 02:48:25;;;;;;;7.20;1.17;;;13.90;99.90;;;;;;5040417;28;20028;-76
2022/07/10 02:50:50;;;;;;;7.53;1.10;;;13.80;99.90;;;;;;5040966;28;20080;-76
2022/07/10 02:53:16;;;;;;;3.97;1.10;;;13.80;99.90;;;;;;5041401;28;20031;-76
2022/07/10 02:55:41;;;;;;;7.57;1.30;;;13.80;99.90;;;;;;5042909;28;20025;-76
2022/07/10 02:58:09;;;;;;;2.85;0.80;;;13.80;99.90;;;;;;5037485;28;20033;-76
2022/07/10 03:00:35;;;;;;;4.95;1.10;;;13.80;99.90;;;;;;5047759;28;20382;-76
2022/07/10 03:03:01;;;;;;;7.82;1.25;;;13.80;99.90;;;;;;5035461;28;20033;-76
2022/07/10 03:05:26;;;;;;;10.07;1.10;;;13.80;99.90;;;;;;5033656;28;20273;-76
2022/07/10 03:07:52;;;;;;;5.32;1.23;;;13.80;99.90;;;;;;5041505;28;20404;-76
2022/07/10 03:10:18;;;;;;;6.20;1.00;;;13.80;99.90;;;;;;5041696;28;20112;-76
2022/07/10 03:12:44;;;;;;;7.07;1.13;;;13.80;99.90;;;;;;5047489;28;20053;-76
2022/07/10 03:15:10;;;;;;;5.32;1.13;;;13.80;99.90;;;;;;5044836;28;20028;-76
2022/07/10 03:17:35;;;;;;;6.13;0.73;;;13.70;99.90;;;;;;5045331;28;20029;-76
2022/07/10 03:20:01;;;;;;;4.75;1.27;;;13.70;99.90;;;;;;5046264;28;20048;-76
2022/07/10 03:22:28;;;;;;;3.05;0.98;;;13.70;99.90;;;;;;5047859;28;20087;-76
2022/07/10 03:24:54;;;;;;;3.70;0.80;;;13.60;99.90;;;;;;5040730;28;20029;-76
2022/07/10 03:27:19;;;;;;;7.85;1.17;;;13.60;99.90;;;;;;5049440;28;20535;-76
2022/07/10 03:29:46;;;;;;;3.35;0.85;;;13.50;99.90;;;;;;5037583;28;19997;-76
2022/07/10 03:32:11;;;;;;;6.20;0.90;;;13.50;99.90;;;;;;5035382;28;20025;-76
2022/07/10 03:34:37;;;;;;;4.22;0.90;;;13.40;99.90;;;;;;5035639;28;20559;-75
2022/07/10 03:37:03;;;;;;;4.75;1.10;;;13.40;99.90;;;;;;5039692;28;20515;-76
2022/07/10 03:39:28;;;;;;;5.82;1.00;;;13.30;99.90;;;;;;5038736;28;20029;-76
2022/07/10 03:41:55;;;;;;;5.43;0.90;;;13.30;99.90;;;;;;5036442;28;20085;-76
2022/07/10 03:44:21;;;;;;;3.97;1.00;;;13.20;99.90;;;;;;5041936;28;20064;-76
2022/07/10 03:46:46;;;;;;;3.35;0.75;;;13.20;99.90;;;;;;5042368;28;20104;-76
2022/07/10 03:49:12;;;;;;;4.60;1.00;;;13.20;99.90;;;;;;5038810;28;20426;-76
2022/07/10 03:51:38;;;;;;;7.65;0.90;;;13.20;99.90;;;;;;5038171;28;20029;-76
2022/07/10 03:54:03;;;;;;;4.85;0.90;;;13.20;99.90;;;;;;5040922;28;20159;-76
2022/07/10 03:59:13;;;;;;;3.08;0.70;;;13.20;99.90;;;;;;5042141;28;20036;-76
2022/07/10 04:01:38;;;;;;;4.30;1.10;;;13.20;99.90;;;;;;5034263;28;20029;-76
2022/07/10 04:04:04;;;;;;;4.47;0.90;;;13.30;99.90;;;;;;5038248;28;20041;-76
2022/07/10 04:06:30;;;;;;;5.50;1.27;;;13.30;99.90;;;;;;5038025;28;20590;-76
2022/07/10 04:08:55;;;;;;;4.95;1.25;;;13.40;99.90;;;;;;5045453;28;20040;-76
2022/07/10 04:11:21;;;;;;;5.07;0.80;;;13.40;99.90;;;;;;5043639;28;20493;-75
2022/07/10 04:13:46;;;;;;;4.38;0.80;;;13.40;99.90;;;;;;5039132;28;20061;-76
2022/07/10 04:16:13;;;;;;;5.00;1.02;;;13.50;99.90;;;;;;5044748;28;20095;-76
2022/07/10 04:18:42;;;;;;;5.57;0.90;;;13.50;99.90;;;;;;5039492;28;20040;-75
2022/07/10 04:21:07;;;;;;;7.30;1.00;;;13.50;99.90;;;;;;5037977;28;20410;-75
2022/07/10 04:23:33;;;;;;;4.97;0.70;;;13.50;99.90;;;;;;5034057;28;20025;-75
2022/07/10 04:26:00;;;;;;;6.45;1.00;;;13.50;99.90;;;;;;5044469;28;20029;-76
2022/07/10 04:28:26;;;;;;;4.65;1.10;;;13.50;99.90;;;;;;5040973;28;20059;-76
2022/07/10 04:30:51;;;;;;;4.55;0.98;;;13.50;99.90;;;;;;5046709;28;20033;-75
2022/07/10 04:33:17;;;;;;;4.68;0.95;;;13.50;99.90;;;;;;5040672;28;20087;-75
2022/07/10 04:35:43;;;;;;;5.40;1.20;;;13.60;99.90;;;;;;5038540;28;20044;-76
2022/07/10 04:38:09;;;;;;;4.05;1.05;;;13.60;99.90;;;;;;5040654;28;20554;-75
2022/07/10 04:40:35;;;;;;;5.18;1.25;;;13.70;99.90;;;;;;5040115;28;20036;-76
2022/07/10 04:43:00;;;;;;;5.75;1.00;;;13.70;99.90;;;;;;5034827;28;20043;-75
2022/07/10 04:45:26;;;;;;;7.40;1.20;;;13.70;99.90;;;;;;5045877;28;20032;-76
2022/07/10 04:47:51;;;;;;;3.40;1.10;;;13.70;99.90;;;;;;5041391;28;20045;-76
2022/07/10 04:50:17;;;;;;;5.28;0.90;;;13.60;99.90;;;;;;5039194;28;20028;-76
2022/07/10 04:52:43;;;;;;;5.95;1.13;;;13.60;99.90;;;;;;5046062;28;20048;-76
2022/07/10 04:55:09;;;;;;;5.47;1.00;;;13.70;99.90;;;;;;5044969;28;20029;-76
2022/07/10 04:57:35;;;;;;;5.88;1.00;;;13.70;99.90;;;;;;5042441;28;20504;-75
2022/07/10 05:00:01;;;;;;;5.47;1.00;;;13.70;99.90;;;;;;4687991;28;10000972;-75
2022/07/10 05:02:27;;;;;;;6.47;1.10;;;13.70;99.90;;;;;;5025865;28;20104;-75
2022/07/10 05:04:52;;;;;;;3.40;1.15;;;13.80;99.90;;;;;;5040960;28;20035;-73
2022/07/10 05:07:18;;;;;;;4.53;1.00;;;13.80;99.90;;;;;;5053482;28;20176;-73
2022/07/10 05:09:43;;;;;;;5.97;1.08;;;13.80;99.90;;;;;;5035303;28;20037;-72
2022/07/10 05:12:09;;;;;;;5.05;0.98;;;13.80;99.90;;;;;;5035312;28;20070;-73
2022/07/10 05:14:35;;;;;;;7.65;1.50;;;13.90;99.90;;;;;;5038244;28;20568;-78
2022/07/10 05:17:00;;;;;;;8.07;1.20;;;14.00;99.90;;;;;;5031170;28;20033;-73
2022/07/10 05:19:26;;;;;;;4.00;0.90;;;14.00;99.90;;;;;;5033251;28;20033;-76
2022/07/10 05:21:52;;;;;;;6.90;1.13;;;14.00;99.90;;;;;;5038818;28;20099;-74
2022/07/10 05:24:17;;;;;;;4.03;1.13;;;14.00;99.90;;;;;;5031693;28;20049;-73
2022/07/10 05:26:43;;;;;;;4.43;1.10;;;14.10;99.90;;;;;;5033498;28;20036;-73
2022/07/10 05:29:09;;;;;;;6.07;0.85;;;14.20;99.90;;;;;;5026351;28;20033;-74
2022/07/10 05:31:34;;;;;;;4.35;1.13;;;14.30;99.90;;;;;;5031108;28;20031;-78
2022/07/10 05:34:00;;;;;;;7.13;1.20;;;14.40;99.90;;;;;;5028851;28;20064;-77
2022/07/10 05:36:26;;;;;;;8.68;1.30;;;14.40;99.90;;;;;;5036394;28;20048;-75
2022/07/10 05:38:52;;;;;;;5.15;1.23;;;14.40;99.90;;;;;;5037856;28;20334;-75
2022/07/10 05:41:17;;;;;;;7.43;1.52;;;14.40;99.90;;;;;;5040964;28;20025;-75
2022/07/10 05:43:43;;;;;;;10.88;1.38;;;14.40;99.90;;;;;;5039285;28;20036;-72
2022/07/10 05:46:08;;;;;;;6.10;0.80;;;14.40;99.90;;;;;;5029315;28;20389;-73
2022/07/10 05:48:34;;;;;;;6.32;1.25;;;14.40;99.90;;;;;;5030482;28;20052;-73
2022/07/10 05:51:00;;;;;;;12.43;1.33;;;14.40;99.90;;;;;;5030812;28;20041;-73
2022/07/10 05:53:25;;;;;;;7.28;1.33;;;14.40;99.90;;;;;;5033066;28;20044;-74
2022/07/10 05:55:51;;;;;;;5.38;1.10;;;14.50;99.90;;;;;;5032526;28;20099;-75
2022/07/10 05:58:17;;;;;;;6.38;1.40;;;14.50;99.90;;;;;;5027389;28;20040;-73
2022/07/10 06:00:43;;;;;;;7.93;1.30;;;14.50;99.90;;;;;;5026744;28;20038;-76
2022/07/10 06:03:10;;;;;;;5.53;1.08;;;14.50;99.90;;;;;;5038328;28;20511;-74
2022/07/10 06:05:36;;;;;;;5.25;1.20;;;14.50;99.90;;;;;;5030341;28;20067;-74
2022/07/10 06:08:02;;;;;;;7.70;1.27;;;14.60;99.90;;;;;;5030764;28;20421;-73
2022/07/10 06:10:28;;;;;;;6.15;1.27;;;14.50;99.90;;;;;;5027840;28;20117;-73
2022/07/10 06:12:53;;;;;;;11.07;1.52;;;14.60;99.90;;;;;;5030207;28;20032;-73
2022/07/10 06:15:19;;;;;;;9.88;1.60;;;14.60;99.90;;;;;;5032827;28;20030;-73
2022/07/10 06:17:45;;;;;;;4.78;1.33;;;14.60;99.90;;;;;;5032253;28;20669;-73
2022/07/10 06:20:10;;;;;;;7.32;1.30;;;14.60;99.90;;;;;;5030796;28;20071;-73
2022/07/10 06:22:36;;;;;;;8.30;1.60;;;14.60;99.90;;;;;;5035145;28;20029;-74
2022/07/10 06:25:06;;;;;;;6.85;1.35;;;14.60;99.90;;;;;;5031121;28;20028;-73
2022/07/10 06:27:33;;;;;;;8.25;1.50;;;14.70;99.90;;;;;;5031421;28;20029;-73
2022/07/10 06:29:59;;;;;;;4.75;1.20;;;14.90;99.90;;;;;;5033713;28;20025;-73
2022/07/10 06:32:26;;;;;;;4.13;1.00;;;15.20;99.90;;;;;;5036266;28;20419;-73
2022/07/10 06:34:53;;;;;;;5.28;1.38;;;15.60;99.90;;;;;;5029467;28;20041;-73
2022/07/10 06:37:19;;;;;;;6.15;1.00;;;16.00;99.90;;;;;;5031848;28;20681;-73
2022/07/10 06:39:47;;;;;;;7.05;1.08;;;16.40;99.90;;;;;;5027910;28;20493;-73
2022/07/10 06:42:13;;;;;;;3.90;1.02;;;16.60;99.90;;;;;;5034106;28;20740;-74
2022/07/10 06:44:38;;;;;;;11.95;1.42;;;16.70;99.90;;;;;;5034464;28;20025;-74
2022/07/10 06:49:51;;;;;;;5.55;1.23;;;16.70;99.90;;;;;;5030860;28;20112;-73
2022/07/10 06:52:17;;;;;;;3.88;1.00;;;16.60;99.90;;;;;;5033181;28;20021;-74
2022/07/10 06:54:43;;;;;;;4.95;1.13;;;16.50;99.90;;;;;;5035555;28;20389;-74
2022/07/10 06:57:09;;;;;;;6.10;0.90;;;16.50;99.90;;;;;;5037165;28;20029;-73
2022/07/10 06:59:35;;;;;;;5.45;1.20;;;16.50;99.90;;;;;;5031756;28;20554;-74
2022/07/10 07:02:01;;;;;;;6.10;1.33;;;;;;;;;;5026867;28;20041;-73
2022/07/10 07:04:27;;;;;;;6.13;1.05;;;;;;;;;;5031002;28;20038;-74
2022/07/10 07:06:53;;;;;;;4.25;0.80;;;;;;;;;;5032546;28;20600;-73
2022/07/10 07:09:19;;;;;;;7.75;0.98;;;;;;;;;;5032282;28;20472;-73
2022/07/10 07:11:45;;;;;;;8.13;1.15;;;;;;;;;;5044876;28;20033;-74
2022/07/10 07:14:11;;;;;;;6.60;1.13;;;;;;;;;;5039777;28;20025;-75
2022/07/10 07:16:38;;;;;;;6.43;0.90;;;15.60;99.90;;;;;;5038279;28;20041;-74
2022/07/10 07:19:05;;;;;;;7.72;1.08;;;16.00;99.90;;;;;;5040049;28;20115;-75
2022/07/10 07:24:18;;;;;;;5.63;0.85;;;16.30;99.90;;;;;;5041148;28;20400;-75
2022/07/10 07:26:46;;;;;;;2.92;0.75;;;16.40;99.90;;;;;;5045603;28;20119;-78
2022/07/10 07:29:16;;;;;;;3.08;0.70;;;16.60;99.90;;;;;;5035818;28;20202;-73
2022/07/10 07:31:42;;;;;;;5.38;0.70;;;16.60;99.90;;;;;;5034758;28;20468;-75
2022/07/10 07:34:07;;;;;;;4.30;0.95;;;16.60;99.90;;;;;;5036707;28;20032;-75
2022/07/10 07:36:33;;;;;;;4.78;0.80;;;16.60;99.90;;;;;;5040235;28;20044;-73
2022/07/10 07:38:59;;;;;;;2.95;0.90;;;16.60;99.90;;;;;;5038725;28;20087;-73
2022/07/10 07:41:24;;;;;;;5.13;0.68;;;16.50;99.90;;;;;;5033795;28;20029;-73
2022/07/10 07:43:50;;;;;;;5.25;0.93;;;16.50;99.90;;;;;;5041403;28;20025;-73
2022/07/10 07:46:16;;;;;;;5.18;0.90;;;16.50;99.90;;;;;;5034159;28;20910;-76
2022/07/10 07:48:42;;;;;;;14.02;0.80;;;16.40;99.90;;;;;;5029997;28;20477;-76
2022/07/10 07:51:07;;;;;;;4.45;0.90;;;16.30;99.90;;;;;;5036287;28;20022;-76
2022/07/10 07:53:33;;;;;;;5.03;0.70;;;16.30;99.90;;;;;;5042233;28;20033;-76
2022/07/10 07:55:58;;;;;;;6.32;0.98;;;16.30;99.90;;;;;;5046234;28;20022;-76
2022/07/10 07:58:24;;;;;;;4.35;0.80;;;16.20;99.90;;;;;;5039863;28;20156;-75
2022/07/10 08:00:50;;;;;;;3.78;0.80;;;16.30;99.90;;;;;;5032919;28;20087;-76
2022/07/10 08:03:16;;;;;;;3.80;0.80;;;16.40;99.90;;;;;;5026162;28;20596;-75
2022/07/10 08:05:42;;;;;;;4.45;0.70;;;16.50;99.90;;;;;;5038299;28;20029;-75
2022/07/10 08:08:09;;;;;;;6.03;0.80;;;16.70;99.90;;;;;;5049538;28;20753;-76
2022/07/10 08:10:36;;;;;;;4.15;0.73;;;16.80;99.90;;;;;;5035689;28;20040;-77
2022/07/10 08:13:03;;;;;;;3.22;0.52;;;16.90;99.90;;;;;;5033778;28;20607;-76
2022/07/10 08:15:29;;;;;;;3.97;0.93;;;16.90;99.90;;;;;;5040495;28;20407;-75
2022/07/10 08:17:57;;;;;;;4.88;0.90;;;16.90;99.90;;;;;;5034876;28;20509;-81
2022/07/10 08:20:24;;;;;;;4.20;0.60;;;16.80;99.90;;;;;;5032672;28;20282;-77
2022/07/10 08:22:51;;;;;;;5.93;0.85;;;16.70;99.90;;;;;;5029405;28;20041;-75
2022/07/10 08:25:16;;;;;;;4.32;0.70;;;16.70;99.90;;;;;;5036034;28;20462;-75
2022/07/10 08:27:42;;;;;;;4.25;0.80;;;16.70;99.90;;;;;;5040875;28;20049;-75
2022/07/10 08:30:09;;;;;;;5.43;0.80;;;16.80;99.90;;;;;;5036258;28;20492;-75
2022/07/10 08:32:36;;;;;;;2.45;0.80;;;16.90;99.90;;;;;;5040264;28;20509;-75
2022/07/10 08:35:03;;;;;;;4.63;0.60;;;16.90;99.90;;;;;;5042207;28;20053;-73
2022/07/10 08:37:28;;;;;;;2.47;0.80;;;16.80;99.90;;;;;;5033508;28;21678;-73
2022/07/10 08:39:54;;;;;;;4.88;0.90;;;16.70;99.90;;;;;;5028826;28;20263;-74
2022/07/10 08:42:21;;;;;;;3.60;0.80;;;16.80;99.90;;;;;;5039763;28;20146;-73
2022/07/10 08:44:47;;;;;;;4.10;0.73;;;17.00;99.90;;;;;;5038966;28;20615;-75
2022/07/10 08:47:14;;;;;;;3.45;0.60;;;17.20;99.90;;;;;;5030968;28;20045;-75
2022/07/10 08:49:46;;;;;;;3.13;0.70;;;17.40;99.90;;;;;;5023444;28;20426;-74
2022/07/10 08:52:24;;;;;;;4.32;0.60;;;17.50;99.90;;;;;;5035409;28;20033;-75
2022/07/10 08:54:50;;;;;;;2.60;0.80;;;17.70;99.90;;;;;;5036248;28;20028;-75
2022/07/10 08:57:18;;;;;;;3.38;0.80;;;17.60;99.90;;;;;;5031840;28;20037;-76
2022/07/10 08:59:43;;;;;;;2.38;0.60;;;17.70;99.90;;;;;;5034580;28;20818;-77
2022/07/10 09:02:09;;;;;;;4.53;0.70;;;17.60;99.90;;;;;;5038224;28;20036;-75
2022/07/10 09:04:35;;;;;;;4.45;0.70;;;17.40;99.90;;;;;;5037369;28;20063;-75
2022/07/10 09:07:00;;;;;;;5.03;0.90;;;17.30;99.50;;;;;;5040270;28;20040;-75
2022/07/10 09:09:26;;;;;;;6.15;0.80;;;17.30;99.90;;;;;;5038092;28;20503;-76
2022/07/10 09:11:58;;;;;;;5.72;0.80;;;17.30;99.90;;;;;;5026571;28;20033;-75
2022/07/10 09:14:27;;;;;;;4.53;0.67;;;17.30;99.60;;;;;;5033497;28;20032;-75
2022/07/10 09:16:54;;;;;;;4.28;0.93;;;17.30;99.90;;;;;;5035410;28;20227;-73
2022/07/10 09:19:26;;;;;;;2.90;0.63;;;17.10;99.80;;;;;;5037403;28;20492;-74
2022/07/10 09:22:09;;;;;;;4.47;0.80;;;17.00;99.90;;;;;;5034929;28;20044;-75
2022/07/10 09:24:43;;;;;;;5.30;1.00;;;16.80;99.90;;;;;;5028914;28;20125;-75
2022/07/10 09:27:10;;;;;;;5.07;0.93;;;16.80;99.90;;;;;;5040781;28;20524;-75
2022/07/10 09:29:47;;;;;;;3.70;0.90;;;16.60;99.90;;;;;;5033414;28;20048;-75
2022/07/10 09:32:13;;;;;;;5.10;0.75;;;16.50;99.90;;;;;;5026687;28;20048;-76
2022/07/10 09:34:43;;;;;;;3.20;1.00;;;16.50;99.90;;;;;;5035138;28;20024;-75
2022/07/10 09:37:27;;;;;;;5.93;0.70;;;16.70;99.90;;;;;;5040145;28;20020;-74
2022/07/10 09:40:00;;;;;;;3.50;0.70;;;16.90;99.90;;;;;;5037175;28;20505;-76
2022/07/10 09:42:26;;;;;;;;;;;17.10;99.90;;;;;;5037701;28;20036;-75
2022/07/10 09:44:52;;;;;;;2.63;0.63;;;17.50;99.90;;;;;;5034814;28;19909;-75
2022/07/10 09:47:24;;;;;;;4.43;0.70;;;17.80;99.90;;;;;;5033177;28;20062;-75
2022/07/10 09:49:49;;;;;;;2.65;0.82;;;18.10;99.90;;;;;;5032761;28;20028;-74
2022/07/10 09:52:17;;;;;;;8.98;1.08;;;18.20;98.80;;;;;;5035049;28;20021;-76
2022/07/10 09:54:44;;;;;;;3.00;0.82;;;18.20;98.20;;;;;;5031225;28;20037;-76
2022/07/10 09:57:12;;;;;;;3.03;0.80;;;18.20;98.30;;;;;;5035134;28;20025;-75
2022/07/10 09:59:39;;;;;;;2.67;0.60;;;18.20;98.00;;;;;;5024565;28;20359;-74
2022/07/10 10:02:07;;;;;;;3.88;0.75;;;18.20;98.10;;;;;;5029870;28;20532;-74
2022/07/10 10:04:34;;;;;;;4.72;0.90;;;18.30;97.60;;;;;;5036431;28;20044;-73
2022/07/10 10:07:02;;;;;;;5.28;0.60;;;18.50;96.90;;;;;;5030457;28;20493;-74
2022/07/10 10:09:58;;;;;;;3.97;0.73;;;18.50;96.90;;;;;;5036601;28;20273;-73
2022/07/10 10:12:47;;;;;;;3.90;0.90;;;18.70;96.70;;;;;;5033032;28;20554;-73
2022/07/10 10:15:14;;;;;;;2.22;0.77;;;18.90;96.90;;;;;;5039181;28;20028;-74
2022/07/10 10:17:41;;;;;;;4.28;0.93;;;19.00;95.70;;;;;;5034122;28;20056;-73
2022/07/10 10:20:53;;;;;;;4.50;0.80;;;19.10;95.40;;;;;;5028534;28;20425;-73
2022/07/10 10:22:56;;;;;;;2.58;0.73;;;19.20;95.90;;;;;;5022889;28;20041;-73
2022/07/10 10:25:24;;;;;;;4.50;0.60;;;19.40;95.90;;;;;;5034947;28;20400;-74
2022/07/10 10:27:50;;;;;;;4.60;1.08;;;19.60;94.80;;;;;;5033968;28;20047;-74
2022/07/10 10:30:17;;;;;;;2.47;0.70;;;19.50;94.10;;;;;;5028610;28;20033;-74
2022/07/10 10:32:43;;;;;;;7.38;1.10;;;19.20;94.70;;;;;;5038274;28;20059;-74
2022/07/10 10:35:15;;;;;;;3.63;0.98;;;19.00;95.20;;;;;;5029461;28;20450;-74
2022/07/10 10:37:44;;;;;;;6.07;0.90;;;18.80;95.40;;;;;;5016990;28;20036;-74
2022/07/10 10:40:29;;;;;;;5.88;0.80;;;18.50;96.20;;;;;;5020129;28;20033;-74
2022/07/10 10:42:55;;;;;;;6.00;1.00;;;18.40;96.80;;;;;;5021825;28;20182;-74
2022/07/10 10:45:32;;;;;;;3.65;0.90;;;18.70;96.50;;;;;;5023302;28;20026;-74
2022/07/10 10:48:05;;;;;;;5.38;1.20;;;19.00;96.30;;;;;;5016662;28;20037;-74
2022/07/10 10:50:41;;;;;;;5.60;0.90;;;19.30;96.00;;;;;;5018827;28;20162;-73
2022/07/10 10:53:18;;;;;;;3.03;0.77;;;19.70;94.60;;;;;;5021542;28;20045;-72
2022/07/10 10:56:04;;;;;;;4.47;0.95;;;19.80;94.50;;;;;;5018855;28;20029;-73
2022/07/10 10:58:43;;;;;;;5.25;0.88;;;20.00;95.20;;;;;;5003976;28;20298;-73
2022/07/10 11:01:21;;;;;;;4.40;0.93;;;20.10;93.90;;;;;;5017368;28;20034;-73
2022/07/10 11:04:08;;;;;;;3.00;0.90;;;20.40;93.50;;;;;;5017354;28;20065;-73
2022/07/10 11:06:53;;;;;;;2.97;0.88;;;20.60;91.90;;;;;;5021598;28;20257;-73
2022/07/10 11:09:24;;;;;;;3.58;0.73;;;20.60;90.50;;;;;;5018564;28;20386;-73
2022/07/10 11:12:08;;;;;;;5.80;0.95;;;20.50;90.10;;;;;;5015841;28;20045;-73
2022/07/10 11:14:38;;;;;;;2.88;0.77;;;;;;;;;;5013978;28;20440;-73
2022/07/10 11:17:05;;;;;;;2.33;0.65;;;20.00;91.10;;;;;;5024738;28;20494;-73
2022/07/10 11:19:32;;;;;;;7.43;0.98;;;19.80;90.80;;;;;;5016737;28;20132;-73
2022/07/10 11:22:10;;;;;;;6.55;0.80;;;19.70;91.50;;;;;;5016677;28;20613;-73
2022/07/10 11:24:48;;;;;;;6.20;1.00;;;19.50;91.50;;;;;;5010986;28;20285;-73
2022/07/10 11:27:30;;;;;;;4.85;0.90;;;19.40;91.90;;;;;;5015807;28;20378;-73
2022/07/10 11:30:00;;;;;;;5.20;1.00;;;19.40;92.50;;;;;;5009495;28;20470;-74
2022/07/10 11:32:27;;;;;;;4.50;0.90;;;19.40;91.90;;;;;;5019121;28;20121;-73
2022/07/10 11:34:52;;;;;;;4.50;0.90;;;19.40;92.30;;;;;;5028864;28;20072;-72
2022/07/10 11:37:18;;;;;;;4.13;0.88;;;19.40;91.60;;;;;;5036039;28;20659;-73
2022/07/10 11:39:44;;;;;;;3.45;1.02;;;19.50;91.50;;;;;;5036156;28;20422;-73
2022/07/10 11:42:10;;;;;;;4.72;0.90;;;19.50;90.70;;;;;;5030215;28;20299;-74
2022/07/10 11:44:35;;;;;;;4.18;1.08;;;19.50;90.50;;;;;;5032897;28;20543;-74
2022/07/10 11:47:02;;;;;;;3.17;0.85;;;19.50;90.30;;;;;;5035702;28;20043;-74
2022/07/10 11:49:28;;;;;;;4.90;0.80;;;19.50;90.90;;;;;;5037527;28;20033;-74
2022/07/10 11:52:00;;;;;;;7.25;1.20;;;19.50;90.80;;;;;;5036758;28;20076;-75
2022/07/10 11:54:25;;;;;;;6.18;1.10;;;19.70;91.10;;;;;;5040088;28;20481;-74
2022/07/10 11:56:53;;;;;;;5.18;0.95;;;19.70;90.80;;;;;;5045835;28;20145;-73
2022/07/10 11:59:27;;;;;;;2.53;0.82;;;19.80;90.40;;;;;;5030876;28;20033;-73
2022/07/10 12:01:54;;;;;;;3.83;0.70;;;19.90;90.20;;;;;;5034941;28;20037;-73
2022/07/10 12:04:24;;;;;;;6.35;1.08;;;20.00;90.10;;;;;;5042042;28;20029;-74
2022/07/10 12:06:51;;;;;;;6.68;1.13;;;20.20;89.00;;;;;;5039327;28;20120;-74
2022/07/10 12:09:19;;;;;;;4.22;0.90;;;20.20;87.60;;;;;;5040032;28;20349;-73
2022/07/10 12:12:00;;;;;;;2.75;0.50;;;20.10;86.50;;;;;;5035404;28;20059;-74
2022/07/10 12:14:26;;;;;;;5.07;0.75;;;19.90;87.50;;;;;;5040355;28;20234;-74
2022/07/10 12:16:52;;;;;;;3.50;0.70;;;20.00;86.90;;;;;;5043487;28;20039;-75
2022/07/10 12:19:22;;;;;;;2.90;0.60;;;20.00;87.30;;;;;;5027019;28;20065;-75
2022/07/10 12:21:48;;;;;;;4.60;0.82;;;20.10;87.30;;;;;;5033246;28;20025;-75
2022/07/10 12:24:19;;;;;;;3.90;0.82;;;20.30;86.10;;;;;;5042706;28;20079;-74
2022/07/10 12:26:45;;;;;;;4.45;0.90;;;20.30;86.20;;;;;;5034348;28;20040;-73
2022/07/10 12:29:27;;;;;;;4.68;0.80;;;20.30;86.20;;;;;;5037668;28;20068;-73
2022/07/10 12:31:56;;;;;;;4.28;0.70;;;20.30;86.90;;;;;;5045278;28;20037;-73
2022/07/10 12:34:35;;;;;;;4.05;0.90;;;20.10;87.30;;;;;;5042921;28;20345;-73
2022/07/10 12:37:09;;;;;;;5.63;0.90;;;20.20;88.10;;;;;;5039948;28;20052;-72
2022/07/10 12:39:38;;;;;;;5.00;0.90;;;20.30;88.40;;;;;;5031577;28;20497;-73
2022/07/10 12:42:05;;;;;;;3.60;0.88;;;20.30;87.70;;;;;;5062053;28;20337;-74
2022/07/10 12:44:47;;;;;;;4.03;0.88;;;20.20;88.70;;;;;;5049319;28;20432;-74
2022/07/10 12:47:16;;;;;;;3.38;0.90;;;20.10;89.10;;;;;;5041969;28;20477;-74
2022/07/10 12:49:52;;;;;;;3.55;0.88;;;19.90;89.60;;;;;;5038698;28;20033;-73
2022/07/10 12:52:31;;;;;;;5.50;0.90;;;19.80;90.20;;;;;;5031385;28;20559;-73
2022/07/10 12:55:10;;;;;;;8.05;1.10;;;19.70;90.50;;;;;;5033518;28;20659;-74
2022/07/10 12:58:05;;;;;;;6.85;1.00;;;19.60;90.60;;;;;;5046994;28;20040;-74